sensor_id;sensor_type;location;lat;lon;timestamp;pressure;altitude;pressure_sealevel;temperature;humidity
24160;BME280;62385;41.594;23.808;2023-04-05T00:01:31;94563.22;;;9.48;60.52
24160;BME280;62385;41.594;23.808;2023-04-05T00:03:59;94577.16;;;9.57;59.76
24160;BME280;62385;41.594;23.808;2023-04-05T00:06:26;94572.78;;;9.64;61.62
24160;BME280;62385;41.594;23.808;2023-04-05T00:08:53;94575.72;;;9.54;61.28
24160;BME280;62385;41.594;23.808;2023-04-05T00:11:22;94574.84;;;9.47;62.28
24160;BME280;62385;41.594;23.808;2023-04-05T00:13:48;94576.00;;;9.45;63.74
24160;BME280;62385;41.594;23.808;2023-04-05T00:16:15;94579.88;;;9.42;62.63
24160;BME280;62385;41.594;23.808;2023-04-05T00:18:41;94576.94;;;9.37;63.52
24160;BME280;62385;41.594;23.808;2023-04-05T00:21:11;94568.38;;;9.35;62.03
24160;BME280;62385;41.594;23.808;2023-04-05T00:23:40;94582.50;;;9.42;62.42
24160;BME280;62385;41.594;23.808;2023-04-05T00:26:06;94584.06;;;9.37;62.73
24160;BME280;62385;41.594;23.808;2023-04-05T00:28:33;94583.16;;;9.30;62.98
24160;BME280;62385;41.594;23.808;2023-04-05T00:30:59;94586.25;;;9.48;62.46
24160;BME280;62385;41.594;23.808;2023-04-05T00:33:25;94575.94;;;9.38;59.75
24160;BME280;62385;41.594;23.808;2023-04-05T00:35:50;94588.19;;;9.39;61.04
24160;BME280;62385;41.594;23.808;2023-04-05T00:38:16;94589.56;;;9.35;61.87
24160;BME280;62385;41.594;23.808;2023-04-05T00:40:41;94593.38;;;9.33;62.14
24160;BME280;62385;41.594;23.808;2023-04-05T00:43:07;94588.28;;;9.31;62.35
24160;BME280;62385;41.594;23.808;2023-04-05T00:45:32;94590.38;;;9.36;62.85
24160;BME280;62385;41.594;23.808;2023-04-05T00:47:59;94592.22;;;9.35;61.16
24160;BME280;62385;41.594;23.808;2023-04-05T00:50:26;94593.16;;;8.98;62.29
24160;BME280;62385;41.594;23.808;2023-04-05T00:52:57;94591.78;;;9.17;61.70
24160;BME280;62385;41.594;23.808;2023-04-05T00:55:24;94590.66;;;9.26;62.47
24160;BME280;62385;41.594;23.808;2023-04-05T00:57:52;94594.69;;;9.22;62.70
24160;BME280;62385;41.594;23.808;2023-04-05T01:00:20;94592.50;;;9.25;62.66
24160;BME280;62385;41.594;23.808;2023-04-05T01:02:51;94591.84;;;9.23;63.33
24160;BME280;62385;41.594;23.808;2023-04-05T01:05:33;94597.25;;;9.30;62.27
24160;BME280;62385;41.594;23.808;2023-04-05T01:08:33;94599.44;;;9.12;62.60
24160;BME280;62385;41.594;23.808;2023-04-05T01:11:03;94601.56;;;9.02;62.54
24160;BME280;62385;41.594;23.808;2023-04-05T01:13:31;94597.19;;;8.94;61.67
24160;BME280;62385;41.594;23.808;2023-04-05T01:16:15;94590.66;;;8.67;61.15
24160;BME280;62385;41.594;23.808;2023-04-05T01:18:42;94592.28;;;8.54;62.74
24160;BME280;62385;41.594;23.808;2023-04-05T01:22:06;94597.50;;;8.62;62.64
24160;BME280;62385;41.594;23.808;2023-04-05T01:30:40;94598.97;;;8.79;61.06
24160;BME280;62385;41.594;23.808;2023-04-05T01:33:16;94603.47;;;9.22;61.08
24160;BME280;62385;41.594;23.808;2023-04-05T01:38:17;94604.34;;;9.30;62.49
24160;BME280;62385;41.594;23.808;2023-04-05T01:40:44;94612.97;;;9.32;62.21
24160;BME280;62385;41.594;23.808;2023-04-05T01:43:15;94612.97;;;9.32;63.66
24160;BME280;62385;41.594;23.808;2023-04-05T01:45:43;94612.47;;;9.43;62.28
24160;BME280;62385;41.594;23.808;2023-04-05T01:48:09;94612.84;;;9.40;61.94
24160;BME280;62385;41.594;23.808;2023-04-05T01:50:35;94607.91;;;9.37;61.32
24160;BME280;62385;41.594;23.808;2023-04-05T01:53:00;94613.41;;;9.35;62.00
24160;BME280;62385;41.594;23.808;2023-04-05T01:55:26;94616.69;;;9.08;61.14
24160;BME280;62385;41.594;23.808;2023-04-05T01:57:55;94615.63;;;9.02;60.63
24160;BME280;62385;41.594;23.808;2023-04-05T02:00:21;94623.78;;;8.78;60.92
24160;BME280;62385;41.594;23.808;2023-04-05T02:02:47;94624.09;;;9.12;60.78
24160;BME280;62385;41.594;23.808;2023-04-05T02:05:13;94620.63;;;9.26;61.07
24160;BME280;62385;41.594;23.808;2023-04-05T02:07:39;94626.53;;;9.28;61.40
24160;BME280;62385;41.594;23.808;2023-04-05T02:10:05;94614.59;;;9.18;60.96
24160;BME280;62385;41.594;23.808;2023-04-05T02:12:30;94623.72;;;9.01;62.15
24160;BME280;62385;41.594;23.808;2023-04-05T02:14:57;94621.25;;;8.99;62.07
24160;BME280;62385;41.594;23.808;2023-04-05T02:17:24;94619.16;;;8.95;62.17
24160;BME280;62385;41.594;23.808;2023-04-05T02:19:49;94619.44;;;9.00;61.46
24160;BME280;62385;41.594;23.808;2023-04-05T02:22:18;94626.66;;;9.06;61.87
24160;BME280;62385;41.594;23.808;2023-04-05T02:24:44;94618.53;;;9.22;60.62
24160;BME280;62385;41.594;23.808;2023-04-05T02:27:10;94618.97;;;9.25;60.32
24160;BME280;62385;41.594;23.808;2023-04-05T02:29:35;94621.16;;;9.22;61.67
24160;BME280;62385;41.594;23.808;2023-04-05T02:32:01;94609.47;;;9.16;61.19
24160;BME280;62385;41.594;23.808;2023-04-05T02:34:27;94621.91;;;9.01;60.39
24160;BME280;62385;41.594;23.808;2023-04-05T02:36:53;94617.13;;;9.11;61.17
24160;BME280;62385;41.594;23.808;2023-04-05T02:39:19;94611.84;;;9.11;61.81
24160;BME280;62385;41.594;23.808;2023-04-05T02:41:45;94614.69;;;8.95;62.27
24160;BME280;62385;41.594;23.808;2023-04-05T02:44:12;94612.97;;;9.02;60.82
24160;BME280;62385;41.594;23.808;2023-04-05T02:46:37;94615.78;;;9.15;61.07
24160;BME280;62385;41.594;23.808;2023-04-05T02:49:04;94617.03;;;9.19;61.32
24160;BME280;62385;41.594;23.808;2023-04-05T02:51:32;94615.88;;;9.07;60.95
24160;BME280;62385;41.594;23.808;2023-04-05T02:54:04;94625.84;;;9.05;60.91
24160;BME280;62385;41.594;23.808;2023-04-05T02:56:32;94623.81;;;8.93;61.98
24160;BME280;62385;41.594;23.808;2023-04-05T02:58:59;94629.59;;;9.11;62.34
24160;BME280;62385;41.594;23.808;2023-04-05T03:01:25;94620.63;;;9.12;61.59
24160;BME280;62385;41.594;23.808;2023-04-05T03:03:51;94613.59;;;9.19;60.18
24160;BME280;62385;41.594;23.808;2023-04-05T03:06:16;94624.38;;;9.17;61.60
24160;BME280;62385;41.594;23.808;2023-04-05T03:08:47;94625.72;;;9.28;61.52
24160;BME280;62385;41.594;23.808;2023-04-05T03:11:18;94625.38;;;9.16;60.48
24160;BME280;62385;41.594;23.808;2023-04-05T03:13:54;94634.13;;;9.17;60.04
24160;BME280;62385;41.594;23.808;2023-04-05T03:16:34;94632.91;;;8.75;60.06
24160;BME280;62385;41.594;23.808;2023-04-05T03:19:07;94631.03;;;8.84;59.92
24160;BME280;62385;41.594;23.808;2023-04-05T03:21:36;94628.66;;;9.04;58.47
24160;BME280;62385;41.594;23.808;2023-04-05T03:24:09;94628.91;;;8.65;59.60
24160;BME280;62385;41.594;23.808;2023-04-05T03:26:39;94632.94;;;8.90;58.25
24160;BME280;62385;41.594;23.808;2023-04-05T03:29:05;94639.16;;;8.97;58.99
24160;BME280;62385;41.594;23.808;2023-04-05T03:31:35;94634.75;;;8.75;58.83
24160;BME280;62385;41.594;23.808;2023-04-05T03:34:04;94633.88;;;8.97;58.94
24160;BME280;62385;41.594;23.808;2023-04-05T03:36:38;94637.69;;;8.95;58.62
24160;BME280;62385;41.594;23.808;2023-04-05T03:39:11;94631.47;;;8.88;59.13
24160;BME280;62385;41.594;23.808;2023-04-05T03:41:40;94628.81;;;8.73;58.64
24160;BME280;62385;41.594;23.808;2023-04-05T03:44:07;94642.88;;;8.73;59.45
24160;BME280;62385;41.594;23.808;2023-04-05T03:46:33;94639.94;;;8.68;59.19
24160;BME280;62385;41.594;23.808;2023-04-05T03:49:00;94635.56;;;8.75;59.52
24160;BME280;62385;41.594;23.808;2023-04-05T03:51:25;94642.59;;;8.68;58.88
24160;BME280;62385;41.594;23.808;2023-04-05T03:53:52;94646.97;;;8.76;57.83
24160;BME280;62385;41.594;23.808;2023-04-05T03:56:22;94651.06;;;8.78;60.02
24160;BME280;62385;41.594;23.808;2023-04-05T03:58:48;94641.09;;;8.66;59.01
24160;BME280;62385;41.594;23.808;2023-04-05T04:01:16;94653.41;;;8.59;59.60
24160;BME280;62385;41.594;23.808;2023-04-05T04:03:42;94651.34;;;8.69;61.25
24160;BME280;62385;41.594;23.808;2023-04-05T04:06:08;94656.56;;;8.77;61.26
24160;BME280;62385;41.594;23.808;2023-04-05T04:08:34;94654.09;;;8.75;61.07
24160;BME280;62385;41.594;23.808;2023-04-05T04:11:00;94662.56;;;8.71;61.90
24160;BME280;62385;41.594;23.808;2023-04-05T04:13:29;94658.03;;;8.79;60.41
24160;BME280;62385;41.594;23.808;2023-04-05T04:16:00;94659.56;;;8.74;59.00
24160;BME280;62385;41.594;23.808;2023-04-05T04:18:44;94655.34;;;8.65;59.43
24160;BME280;62385;41.594;23.808;2023-04-05T04:21:19;94655.63;;;8.70;60.51
24160;BME280;62385;41.594;23.808;2023-04-05T04:23:59;94658.38;;;8.76;59.83
24160;BME280;62385;41.594;23.808;2023-04-05T04:27:03;94669.94;;;8.61;60.95
24160;BME280;62385;41.594;23.808;2023-04-05T04:29:35;94667.06;;;8.85;60.16
24160;BME280;62385;41.594;23.808;2023-04-05T04:32:36;94670.00;;;8.90;59.94
24160;BME280;62385;41.594;23.808;2023-04-05T04:35:34;94667.91;;;8.86;57.99
24160;BME280;62385;41.594;23.808;2023-04-05T04:38:41;94673.84;;;9.02;58.81
24160;BME280;62385;41.594;23.808;2023-04-05T04:41:30;94668.97;;;8.76;57.90
24160;BME280;62385;41.594;23.808;2023-04-05T04:44:18;94674.34;;;8.83;58.84
24160;BME280;62385;41.594;23.808;2023-04-05T04:47:13;94679.13;;;8.88;59.33
24160;BME280;62385;41.594;23.808;2023-04-05T04:49:56;94676.63;;;8.71;58.55
24160;BME280;62385;41.594;23.808;2023-04-05T04:52:22;94679.44;;;8.70;58.20
24160;BME280;62385;41.594;23.808;2023-04-05T04:54:48;94690.09;;;8.62;58.21
24160;BME280;62385;41.594;23.808;2023-04-05T04:57:15;94687.25;;;8.86;59.46
24160;BME280;62385;41.594;23.808;2023-04-05T04:59:40;94685.69;;;8.77;57.50
24160;BME280;62385;41.594;23.808;2023-04-05T05:02:07;94681.81;;;9.02;57.78
24160;BME280;62385;41.594;23.808;2023-04-05T05:04:33;94682.66;;;8.80;56.87
24160;BME280;62385;41.594;23.808;2023-04-05T05:06:58;94689.69;;;8.73;57.77
24160;BME280;62385;41.594;23.808;2023-04-05T05:09:24;94691.97;;;8.76;59.25
24160;BME280;62385;41.594;23.808;2023-04-05T05:11:56;94691.91;;;8.99;57.14
24160;BME280;62385;41.594;23.808;2023-04-05T05:14:24;94695.66;;;8.90;57.70
24160;BME280;62385;41.594;23.808;2023-04-05T05:16:50;94692.38;;;9.02;57.92
24160;BME280;62385;41.594;23.808;2023-04-05T05:19:17;94699.97;;;9.05;57.48
24160;BME280;62385;41.594;23.808;2023-04-05T05:21:46;94697.41;;;8.97;56.97
24160;BME280;62385;41.594;23.808;2023-04-05T05:24:14;94694.38;;;9.00;59.16
24160;BME280;62385;41.594;23.808;2023-04-05T05:26:40;94694.84;;;9.04;58.20
24160;BME280;62385;41.594;23.808;2023-04-05T05:29:06;94690.72;;;9.01;56.80
24160;BME280;62385;41.594;23.808;2023-04-05T05:31:35;94699.34;;;9.18;57.84
24160;BME280;62385;41.594;23.808;2023-04-05T05:34:01;94705.78;;;8.86;55.86
24160;BME280;62385;41.594;23.808;2023-04-05T05:36:26;94704.44;;;9.19;57.42
24160;BME280;62385;41.594;23.808;2023-04-05T05:38:52;94708.38;;;9.23;56.88
24160;BME280;62385;41.594;23.808;2023-04-05T05:41:21;94706.75;;;9.22;56.73
24160;BME280;62385;41.594;23.808;2023-04-05T05:43:46;94705.91;;;9.22;58.00
24160;BME280;62385;41.594;23.808;2023-04-05T05:46:12;94704.19;;;9.29;56.55
24160;BME280;62385;41.594;23.808;2023-04-05T05:48:39;94715.78;;;9.28;56.67
24160;BME280;62385;41.594;23.808;2023-04-05T05:51:06;94706.41;;;9.03;56.12
24160;BME280;62385;41.594;23.808;2023-04-05T05:53:35;94721.16;;;9.20;56.71
24160;BME280;62385;41.594;23.808;2023-04-05T05:56:01;94709.19;;;9.24;57.92
24160;BME280;62385;41.594;23.808;2023-04-05T05:58:28;94711.94;;;9.31;56.03
24160;BME280;62385;41.594;23.808;2023-04-05T06:00:54;94708.84;;;9.42;56.59
24160;BME280;62385;41.594;23.808;2023-04-05T06:03:22;94718.44;;;9.43;55.28
24160;BME280;62385;41.594;23.808;2023-04-05T06:05:52;94715.59;;;9.30;56.12
24160;BME280;62385;41.594;23.808;2023-04-05T06:08:19;94712.03;;;9.22;55.80
24160;BME280;62385;41.594;23.808;2023-04-05T06:10:44;94721.44;;;9.10;54.62
24160;BME280;62385;41.594;23.808;2023-04-05T06:13:10;94717.91;;;9.47;54.55
24160;BME280;62385;41.594;23.808;2023-04-05T06:15:35;94718.91;;;9.46;54.70
24160;BME280;62385;41.594;23.808;2023-04-05T06:18:01;94721.06;;;9.57;55.53
24160;BME280;62385;41.594;23.808;2023-04-05T06:20:26;94726.19;;;9.30;55.30
24160;BME280;62385;41.594;23.808;2023-04-05T06:22:52;94727.84;;;9.60;53.38
24160;BME280;62385;41.594;23.808;2023-04-05T06:25:18;94729.41;;;9.40;54.78
24160;BME280;62385;41.594;23.808;2023-04-05T06:27:43;94720.81;;;9.38;55.09
24160;BME280;62385;41.594;23.808;2023-04-05T06:30:09;94731.41;;;9.38;54.91
24160;BME280;62385;41.594;23.808;2023-04-05T06:32:35;94742.31;;;8.68;57.97
24160;BME280;62385;41.594;23.808;2023-04-05T06:35:01;94738.91;;;9.34;56.93
24160;BME280;62385;41.594;23.808;2023-04-05T06:37:29;94746.75;;;9.57;55.11
24160;BME280;62385;41.594;23.808;2023-04-05T06:39:55;94744.47;;;9.39;56.27
24160;BME280;62385;41.594;23.808;2023-04-05T06:42:21;94752.53;;;8.48;59.12
24160;BME280;62385;41.594;23.808;2023-04-05T06:44:53;94756.78;;;8.95;59.22
24160;BME280;62385;41.594;23.808;2023-04-05T06:47:19;94751.13;;;9.50;57.77
24160;BME280;62385;41.594;23.808;2023-04-05T06:49:45;94766.00;;;8.84;59.49
24160;BME280;62385;41.594;23.808;2023-04-05T06:52:10;94756.44;;;9.50;58.95
24160;BME280;62385;41.594;23.808;2023-04-05T06:54:36;94767.13;;;9.86;57.18
24160;BME280;62385;41.594;23.808;2023-04-05T06:57:02;94768.78;;;9.72;58.55
24160;BME280;62385;41.594;23.808;2023-04-05T06:59:28;94764.41;;;9.94;57.85
24160;BME280;62385;41.594;23.808;2023-04-05T07:01:54;94785.97;;;8.87;54.42
24160;BME280;62385;41.594;23.808;2023-04-05T07:04:20;94788.91;;;9.14;57.17
24160;BME280;62385;41.594;23.808;2023-04-05T07:06:47;94790.81;;;9.20;57.41
24160;BME280;62385;41.594;23.808;2023-04-05T07:09:13;94794.53;;;9.11;57.26
24160;BME280;62385;41.594;23.808;2023-04-05T07:11:38;94799.69;;;8.45;57.62
24160;BME280;62385;41.594;23.808;2023-04-05T07:14:04;94797.66;;;8.77;58.94
24160;BME280;62385;41.594;23.808;2023-04-05T07:16:32;94797.81;;;8.76;57.88
24160;BME280;62385;41.594;23.808;2023-04-05T07:18:58;94796.94;;;9.21;57.50
24160;BME280;62385;41.594;23.808;2023-04-05T07:21:24;94799.53;;;8.69;57.27
24160;BME280;62385;41.594;23.808;2023-04-05T07:23:49;94808.28;;;8.69;56.90
24160;BME280;62385;41.594;23.808;2023-04-05T07:26:18;94813.59;;;8.69;56.37
24160;BME280;62385;41.594;23.808;2023-04-05T07:28:44;94807.97;;;8.87;55.77
24160;BME280;62385;41.594;23.808;2023-04-05T07:31:13;94817.41;;;8.90;57.88
24160;BME280;62385;41.594;23.808;2023-04-05T07:33:38;94810.34;;;9.42;58.06
24160;BME280;62385;41.594;23.808;2023-04-05T07:36:04;94805.06;;;9.19;55.28
24160;BME280;62385;41.594;23.808;2023-04-05T07:38:30;94823.72;;;9.63;55.39
24160;BME280;62385;41.594;23.808;2023-04-05T07:40:55;94813.00;;;9.57;53.80
24160;BME280;62385;41.594;23.808;2023-04-05T07:43:21;94822.63;;;9.72;53.08
24160;BME280;62385;41.594;23.808;2023-04-05T07:45:48;94830.50;;;8.83;54.52
24160;BME280;62385;41.594;23.808;2023-04-05T07:48:16;94831.50;;;8.82;55.40
24160;BME280;62385;41.594;23.808;2023-04-05T07:50:42;94827.91;;;9.87;55.07
24160;BME280;62385;41.594;23.808;2023-04-05T07:53:13;94838.91;;;8.64;54.65
24160;BME280;62385;41.594;23.808;2023-04-05T07:55:39;94841.75;;;8.85;55.83
24160;BME280;62385;41.594;23.808;2023-04-05T07:58:05;94838.09;;;9.32;53.89
24160;BME280;62385;41.594;23.808;2023-04-05T08:00:31;94837.72;;;9.35;53.02
24160;BME280;62385;41.594;23.808;2023-04-05T08:02:57;94838.25;;;9.97;53.40
24160;BME280;62385;41.594;23.808;2023-04-05T08:05:23;94821.81;;;10.01;53.49
24160;BME280;62385;41.594;23.808;2023-04-05T08:07:48;94846.31;;;8.91;54.12
24160;BME280;62385;41.594;23.808;2023-04-05T08:10:14;94846.97;;;9.16;54.65
24160;BME280;62385;41.594;23.808;2023-04-05T08:12:40;94844.00;;;9.56;52.92
24160;BME280;62385;41.594;23.808;2023-04-05T08:15:06;94850.09;;;9.19;53.56
24160;BME280;62385;41.594;23.808;2023-04-05T08:17:31;94855.28;;;8.90;53.70
24160;BME280;62385;41.594;23.808;2023-04-05T08:19:57;94853.31;;;9.30;55.50
24160;BME280;62385;41.594;23.808;2023-04-05T08:22:27;94849.88;;;9.96;52.24
24160;BME280;62385;41.594;23.808;2023-04-05T08:24:53;94853.94;;;10.21;53.92
24160;BME280;62385;41.594;23.808;2023-04-05T08:27:18;94847.44;;;9.57;52.77
24160;BME280;62385;41.594;23.808;2023-04-05T08:29:44;94849.66;;;9.68;55.06
24160;BME280;62385;41.594;23.808;2023-04-05T08:32:10;94853.47;;;9.13;55.28
24160;BME280;62385;41.594;23.808;2023-04-05T08:34:36;94858.66;;;9.07;54.12
24160;BME280;62385;41.594;23.808;2023-04-05T08:37:01;94858.78;;;9.28;52.90
24160;BME280;62385;41.594;23.808;2023-04-05T08:39:27;94840.72;;;10.28;52.99
24160;BME280;62385;41.594;23.808;2023-04-05T08:42:03;94841.63;;;10.64;53.24
24160;BME280;62385;41.594;23.808;2023-04-05T08:44:35;94846.47;;;10.96;52.10
24160;BME280;62385;41.594;23.808;2023-04-05T08:47:01;94844.63;;;10.61;52.09
24160;BME280;62385;41.594;23.808;2023-04-05T08:49:26;94847.94;;;10.48;52.89
24160;BME280;62385;41.594;23.808;2023-04-05T08:51:53;94844.22;;;10.13;52.63
24160;BME280;62385;41.594;23.808;2023-04-05T08:54:19;94846.69;;;10.80;53.16
24160;BME280;62385;41.594;23.808;2023-04-05T08:56:46;94845.31;;;11.05;52.71
24160;BME280;62385;41.594;23.808;2023-04-05T08:59:15;94847.59;;;11.08;51.16
24160;BME280;62385;41.594;23.808;2023-04-05T09:01:44;94846.50;;;10.16;49.37
24160;BME280;62385;41.594;23.808;2023-04-05T09:04:15;94848.47;;;11.37;48.82
24160;BME280;62385;41.594;23.808;2023-04-05T09:06:43;94836.75;;;11.52;51.12
24160;BME280;62385;41.594;23.808;2023-04-05T09:09:08;94853.28;;;11.27;50.23
24160;BME280;62385;41.594;23.808;2023-04-05T09:11:37;94850.44;;;11.28;51.89
24160;BME280;62385;41.594;23.808;2023-04-05T09:14:03;94852.56;;;10.25;52.31
24160;BME280;62385;41.594;23.808;2023-04-05T09:16:32;94858.41;;;10.35;52.98
24160;BME280;62385;41.594;23.808;2023-04-05T09:19:01;94852.41;;;11.69;48.95
24160;BME280;62385;41.594;23.808;2023-04-05T09:21:27;94845.94;;;11.29;50.68
24160;BME280;62385;41.594;23.808;2023-04-05T09:23:56;94854.91;;;10.20;53.38
24160;BME280;62385;41.594;23.808;2023-04-05T09:26:23;94845.91;;;11.22;51.88
24160;BME280;62385;41.594;23.808;2023-04-05T09:28:53;94841.84;;;11.05;52.94
24160;BME280;62385;41.594;23.808;2023-04-05T09:31:35;94853.09;;;10.21;56.78
24160;BME280;62385;41.594;23.808;2023-04-05T09:34:06;94852.13;;;10.93;54.57
24160;BME280;62385;41.594;23.808;2023-04-05T09:36:33;94852.56;;;10.76;53.57
24160;BME280;62385;41.594;23.808;2023-04-05T09:39:06;94841.25;;;11.31;53.36
24160;BME280;62385;41.594;23.808;2023-04-05T09:41:33;94843.78;;;10.39;55.82
24160;BME280;62385;41.594;23.808;2023-04-05T09:43:59;94830.13;;;10.78;55.65
24160;BME280;62385;41.594;23.808;2023-04-05T09:46:35;94842.66;;;10.84;55.05
24160;BME280;62385;41.594;23.808;2023-04-05T09:49:04;94834.53;;;11.35;55.25
24160;BME280;62385;41.594;23.808;2023-04-05T09:51:33;94825.66;;;12.86;50.87
24160;BME280;62385;41.594;23.808;2023-04-05T09:54:09;94827.16;;;11.79;52.98
24160;BME280;62385;41.594;23.808;2023-04-05T09:56:39;94823.09;;;13.39;52.93
24160;BME280;62385;41.594;23.808;2023-04-05T09:59:10;94817.31;;;12.08;50.38
24160;BME280;62385;41.594;23.808;2023-04-05T10:01:42;94821.50;;;12.77;52.41
24160;BME280;62385;41.594;23.808;2023-04-05T10:04:08;94828.03;;;12.62;52.67
24160;BME280;62385;41.594;23.808;2023-04-05T10:06:38;94832.09;;;13.12;50.62
24160;BME280;62385;41.594;23.808;2023-04-05T10:09:07;94829.78;;;13.09;51.49
24160;BME280;62385;41.594;23.808;2023-04-05T10:11:35;94823.28;;;13.18;50.90
24160;BME280;62385;41.594;23.808;2023-04-05T10:14:06;94826.56;;;13.79;51.28
24160;BME280;62385;41.594;23.808;2023-04-05T10:16:36;94826.97;;;13.23;51.99
24160;BME280;62385;41.594;23.808;2023-04-05T10:19:04;94819.19;;;13.22;51.20
24160;BME280;62385;41.594;23.808;2023-04-05T10:21:36;94824.41;;;12.82;51.25
24160;BME280;62385;41.594;23.808;2023-04-05T10:26:50;94813.88;;;13.42;51.31
24160;BME280;62385;41.594;23.808;2023-04-05T10:29:24;94825.34;;;13.68;49.59
24160;BME280;62385;41.594;23.808;2023-04-05T10:32:29;94828.22;;;13.27;49.80
24160;BME280;62385;41.594;23.808;2023-04-05T10:35:17;94822.03;;;13.14;51.72
24160;BME280;62385;41.594;23.808;2023-04-05T10:40:35;94814.47;;;13.90;48.75
24160;BME280;62385;41.594;23.808;2023-04-05T10:43:02;94819.53;;;13.06;49.33
24160;BME280;62385;41.594;23.808;2023-04-05T10:45:30;94813.66;;;13.89;47.47
24160;BME280;62385;41.594;23.808;2023-04-05T10:48:06;94817.56;;;13.47;50.32
24160;BME280;62385;41.594;23.808;2023-04-05T10:50:36;94813.44;;;13.38;50.22
24160;BME280;62385;41.594;23.808;2023-04-05T10:53:03;94821.19;;;13.00;49.39
24160;BME280;62385;41.594;23.808;2023-04-05T10:55:30;94801.44;;;14.26;47.93
24160;BME280;62385;41.594;23.808;2023-04-05T10:57:56;94805.44;;;14.04;47.42
24160;BME280;62385;41.594;23.808;2023-04-05T11:00:22;94812.06;;;14.59;46.57
24160;BME280;62385;41.594;23.808;2023-04-05T11:02:53;94812.16;;;14.13;46.76
24160;BME280;62385;41.594;23.808;2023-04-05T11:07:59;94802.53;;;14.76;46.65
24160;BME280;62385;41.594;23.808;2023-04-05T11:10:52;94809.31;;;14.08;48.07
24160;BME280;62385;41.594;23.808;2023-04-05T11:13:53;94813.84;;;13.94;48.54
24160;BME280;62385;41.594;23.808;2023-04-05T11:16:36;94815.28;;;13.83;48.89
24160;BME280;62385;41.594;23.808;2023-04-05T11:19:03;94803.13;;;14.14;47.58
24160;BME280;62385;41.594;23.808;2023-04-05T11:21:30;94800.19;;;14.42;46.49
24160;BME280;62385;41.594;23.808;2023-04-05T11:24:02;94799.50;;;15.04;45.21
24160;BME280;62385;41.594;23.808;2023-04-05T11:27:13;94800.75;;;13.73;47.85
24160;BME280;62385;41.594;23.808;2023-04-05T11:29:46;94798.03;;;14.70;45.97
24160;BME280;62385;41.594;23.808;2023-04-05T11:32:45;94795.69;;;15.49;46.84
24160;BME280;62385;41.594;23.808;2023-04-05T11:36:15;94797.97;;;15.52;44.05
24160;BME280;62385;41.594;23.808;2023-04-05T11:54:44;94802.13;;;15.10;42.71
24160;BME280;62385;41.594;23.808;2023-04-05T12:53:15;94797.84;;;13.94;45.89
24160;BME280;62385;41.594;23.808;2023-04-05T12:55:53;94800.72;;;13.79;45.81
24160;BME280;62385;41.594;23.808;2023-04-05T12:58:21;94811.00;;;13.43;47.02
24160;BME280;62385;41.594;23.808;2023-04-05T13:00:47;94804.00;;;13.95;46.01
24160;BME280;62385;41.594;23.808;2023-04-05T13:03:17;94800.66;;;14.19;45.69
24160;BME280;62385;41.594;23.808;2023-04-05T13:05:45;94809.94;;;13.97;45.39
24160;BME280;62385;41.594;23.808;2023-04-05T13:08:11;94800.94;;;13.91;46.86
24160;BME280;62385;41.594;23.808;2023-04-05T13:10:37;94813.88;;;13.35;45.86
24160;BME280;62385;41.594;23.808;2023-04-05T13:13:02;94810.94;;;14.15;46.26
24160;BME280;62385;41.594;23.808;2023-04-05T13:15:28;94806.19;;;14.24;45.94
24160;BME280;62385;41.594;23.808;2023-04-05T13:17:54;94811.81;;;13.63;47.14
24160;BME280;62385;41.594;23.808;2023-04-05T13:20:19;94814.69;;;13.55;46.45
24160;BME280;62385;41.594;23.808;2023-04-05T13:22:45;94813.03;;;13.94;45.97
24160;BME280;62385;41.594;23.808;2023-04-05T13:25:12;94815.50;;;13.88;46.14
24160;BME280;62385;41.594;23.808;2023-04-05T13:27:37;94811.63;;;13.52;46.61
24160;BME280;62385;41.594;23.808;2023-04-05T13:30:03;94823.84;;;13.00;45.05
24160;BME280;62385;41.594;23.808;2023-04-05T13:32:29;94819.78;;;13.11;44.08
24160;BME280;62385;41.594;23.808;2023-04-05T13:34:55;94825.94;;;13.11;44.07
24160;BME280;62385;41.594;23.808;2023-04-05T13:37:20;94832.31;;;13.30;44.18
24160;BME280;62385;41.594;23.808;2023-04-05T13:39:46;94830.28;;;12.71;43.61
24160;BME280;62385;41.594;23.808;2023-04-05T13:42:11;94828.44;;;12.72;44.26
24160;BME280;62385;41.594;23.808;2023-04-05T13:44:37;94829.09;;;12.80;44.25
24160;BME280;62385;41.594;23.808;2023-04-05T13:47:03;94836.47;;;12.78;43.67
24160;BME280;62385;41.594;23.808;2023-04-05T13:49:29;94840.34;;;12.28;44.58
24160;BME280;62385;41.594;23.808;2023-04-05T13:51:55;94838.66;;;11.86;44.50
24160;BME280;62385;41.594;23.808;2023-04-05T13:54:20;94850.84;;;12.02;44.00
24160;BME280;62385;41.594;23.808;2023-04-05T13:56:46;94857.78;;;11.96;43.57
24160;BME280;62385;41.594;23.808;2023-04-05T13:59:12;94847.25;;;12.16;42.54
24160;BME280;62385;41.594;23.808;2023-04-05T14:01:41;94853.59;;;12.56;43.47
24160;BME280;62385;41.594;23.808;2023-04-05T14:04:08;94857.19;;;12.89;43.19
24160;BME280;62385;41.594;23.808;2023-04-05T14:06:34;94866.13;;;12.69;42.22
24160;BME280;62385;41.594;23.808;2023-04-05T14:08:59;94864.66;;;12.19;43.28
24160;BME280;62385;41.594;23.808;2023-04-05T14:11:25;94866.63;;;12.03;42.43
24160;BME280;62385;41.594;23.808;2023-04-05T14:13:51;94870.41;;;12.57;43.71
24160;BME280;62385;41.594;23.808;2023-04-05T14:16:19;94874.78;;;12.02;43.43
24160;BME280;62385;41.594;23.808;2023-04-05T14:18:45;94878.56;;;11.65;43.70
24160;BME280;62385;41.594;23.808;2023-04-05T14:21:11;94879.56;;;11.64;43.50
24160;BME280;62385;41.594;23.808;2023-04-05T14:23:36;94879.59;;;11.43;44.39
24160;BME280;62385;41.594;23.808;2023-04-05T14:26:02;94884.47;;;11.39;43.59
24160;BME280;62385;41.594;23.808;2023-04-05T14:28:28;94887.69;;;11.77;43.08
24160;BME280;62385;41.594;23.808;2023-04-05T14:30:53;94886.56;;;11.93;43.45
24160;BME280;62385;41.594;23.808;2023-04-05T14:33:19;94895.16;;;12.16;43.91
24160;BME280;62385;41.594;23.808;2023-04-05T14:35:45;94900.53;;;11.52;43.92
24160;BME280;62385;41.594;23.808;2023-04-05T14:38:10;94893.31;;;11.68;43.56